Time;durP1;ratioP1;P1;durP2;ratioP2;P2;SDS_P1;SDS_P2;PMS_P1;PMS_P2;Temp;Humidity;BMP_temperature;BMP_pressure;BME280_temperature;BME280_humidity;BME280_pressure;Samples;Min_cycle;Max_cycle;Signal;HPM_P1;HPM_P2
2022/01/31 00:00:15;;;;;;;80.97;41.28;;;;;;;4.08;100.00;100729.38;4945305;29;20059;-85
2022/01/31 00:02:45;;;;;;;83.47;43.00;;;;;;;3.82;100.00;100721.78;4927355;29;20071;-84
2022/01/31 00:05:19;;;;;;;75.90;41.53;;;;;;;3.94;100.00;100716.50;4931143;29;20041;-84
2022/01/31 00:07:46;;;;;;;91.95;45.13;;;;;;;3.76;100.00;100717.00;4930762;29;20067;-84
2022/01/31 00:10:13;;;;;;;82.75;44.80;;;;;;;3.74;100.00;100718.94;4927598;29;20068;-85
2022/01/31 00:15:31;;;;;;;82.60;41.47;;;;;;;3.72;100.00;100711.16;4926285;29;20046;-85
2022/01/31 00:17:57;;;;;;;78.15;41.97;;;;;;;3.25;100.00;100716.44;4931358;29;20056;-85
2022/01/31 00:20:22;;;;;;;84.25;42.35;;;;;;;3.16;100.00;100714.47;4932729;29;20120;-84
2022/01/31 00:22:55;;;;;;;83.28;42.67;;;;;;;3.07;100.00;100708.94;4932048;29;20044;-86
2022/01/31 00:25:20;;;;;;;80.07;40.42;;;;;;;3.04;100.00;100703.94;4932308;29;20047;-85
2022/01/31 00:27:47;;;;;;;77.72;40.70;;;;;;;2.86;100.00;100688.69;4913183;29;20032;-86
2022/01/31 00:30:15;;;;;;;73.60;39.78;;;;;;;2.85;100.00;100694.88;4930841;29;20441;-83
2022/01/31 00:32:41;;;;;;;80.57;39.22;;;;;;;2.78;100.00;100693.66;4929284;29;20119;-85
2022/01/31 00:35:07;;;;;;;78.63;40.88;;;;;;;2.67;100.00;100683.09;4930346;29;20084;-85
2022/01/31 00:37:33;;;;;;;83.28;39.92;;;;;;;2.56;100.00;100676.81;4929470;29;20036;-86
2022/01/31 00:40:12;;;;;;;77.68;39.53;;;;;;;2.69;100.00;100675.97;4931799;29;20088;-85
2022/01/31 00:42:58;;;;;;;81.55;39.90;;;;;;;2.94;100.00;100666.28;4930202;29;20040;-85
2022/01/31 00:45:27;;;;;;;74.07;39.40;;;;;;;3.00;100.00;100671.06;4928886;29;20099;-85
2022/01/31 00:48:02;;;;;;;74.15;39.35;;;;;;;3.17;100.00;100656.75;4937699;29;20044;-88
2022/01/31 00:50:37;;;;;;;77.03;37.30;;;;;;;3.22;100.00;100654.63;4924689;29;20044;-86
2022/01/31 00:53:05;;;;;;;73.00;35.80;;;;;;;3.21;100.00;100652.13;4913014;29;20040;-85
2022/01/31 00:55:30;;;;;;;68.43;36.17;;;;;;;3.08;100.00;100647.78;4912431;29;20047;-85
2022/01/31 00:57:56;;;;;;;70.78;35.75;;;;;;;3.13;100.00;100639.59;4927684;29;20048;-85
2022/01/31 01:00:25;;;;;;;66.60;35.40;;;;;;;3.25;100.00;100648.34;4944195;29;20043;-84
2022/01/31 01:02:54;;;;;;;74.97;36.33;;;;;;;2.80;100.00;100637.63;4927178;29;20059;-86
2022/01/31 01:05:23;;;;;;;72.10;34.90;;;;;;;2.88;100.00;100629.22;4928859;29;20067;-85
2022/01/31 01:07:50;;;;;;;67.30;34.75;;;;;;;2.87;100.00;100624.94;4895285;29;20067;-84
2022/01/31 01:10:18;;;;;;;70.90;34.80;;;;;;;2.82;100.00;100629.66;4944760;29;20056;-86
2022/01/31 01:12:45;;;;;;;63.30;31.65;;;;;;;3.05;100.00;100634.91;4928497;29;20108;-87
2022/01/31 01:15:18;;;;;;;67.20;34.65;;;;;;;2.92;100.00;100626.25;4947234;29;20024;-85
2022/01/31 01:17:45;;;;;;;;;;;;;;;3.07;100.00;100629.56;4947785;29;20044;-85
2022/01/31 01:20:15;;;;;;;64.93;33.17;;;;;;;2.94;100.00;100615.69;4929938;29;19923;-86
2022/01/31 01:22:46;;;;;;;65.90;33.40;;;;;;;2.92;100.00;100607.94;4913842;29;20072;-85
2022/01/31 01:25:16;;;;;;;68.97;34.80;;;;;;;3.02;100.00;100606.31;4941487;29;20391;-86
2022/01/31 01:27:46;;;;;;;57.50;33.30;;;;;;;3.10;100.00;100600.53;4899153;29;20058;-86
2022/01/31 01:30:14;;;;;;;63.88;33.30;;;;;;;3.14;100.00;100599.38;4944926;29;20063;-84
2022/01/31 01:33:07;;;;;;;61.28;33.08;;;;;;;3.23;100.00;100600.47;4912672;29;20032;-85
2022/01/31 01:35:34;;;;;;;64.15;33.38;;;;;;;3.43;100.00;100602.44;4930070;29;20100;-85
2022/01/31 01:38:15;;;;;;;59.58;31.67;;;;;;;3.50;100.00;100598.41;4944509;29;20040;-86
2022/01/31 01:40:42;;;;;;;61.78;33.25;;;;;;;3.59;100.00;100593.31;4930066;29;20068;-87
2022/01/31 01:43:14;;;;;;;58.55;31.92;;;;;;;3.67;100.00;100591.91;4929768;29;20095;-85
2022/01/31 01:45:42;;;;;;;56.40;31.92;;;;;;;3.77;100.00;100590.25;4928915;29;20080;-87
2022/01/31 01:48:11;;;;;;;63.22;32.85;;;;;;;3.84;100.00;100589.69;4898831;29;20036;-87
2022/01/31 01:50:38;;;;;;;59.00;31.65;;;;;;;3.74;100.00;100574.75;4900673;29;20044;-84
2022/01/31 01:53:07;;;;;;;63.05;32.70;;;;;;;3.89;100.00;100569.16;4932449;29;20034;-84
2022/01/31 01:55:33;;;;;;;60.08;31.38;;;;;;;3.93;100.00;100568.00;4940370;29;20047;-86
2022/01/31 01:58:05;;;;;;;60.90;31.92;;;;;;;3.94;100.00;100563.59;4940829;29;20028;-85
2022/01/31 02:00:59;;;;;;;54.58;30.17;;;;;;;3.87;100.00;100562.38;4952889;28;20103;-84
2022/01/31 02:04:03;;;;;;;56.00;28.80;;;;;;;3.54;100.00;100550.91;4920305;29;20047;-82
2022/01/31 02:06:40;;;;;;;59.47;30.80;;;;;;;3.56;100.00;100541.16;4931919;29;20108;-85
2022/01/31 02:09:08;;;;;;;59.70;30.60;;;;;;;3.40;100.00;100537.19;4930438;29;20040;-85
2022/01/31 02:11:40;;;;;;;61.90;32.85;;;;;;;3.35;100.00;100523.59;4934188;29;20040;-85
2022/01/31 02:14:08;;;;;;;63.53;32.55;;;;;;;2.94;100.00;100516.22;4917874;29;20029;-84
2022/01/31 02:16:54;;;;;;;58.00;30.42;;;;;;;2.94;100.00;100503.16;4928990;29;20043;-84
2022/01/31 02:19:33;;;;;;;59.65;31.83;;;;;;;2.85;100.00;100504.63;4929215;29;20034;-85
2022/01/31 02:22:25;;;;;;;60.78;32.22;;;;;;;2.98;100.00;100505.41;4931579;29;20111;-83
2022/01/31 02:25:00;;;;;;;60.28;31.63;;;;;;;2.97;100.00;100497.69;4936110;29;20044;-83
2022/01/31 02:27:42;;;;;;;62.85;33.67;;;;;;;2.70;100.00;100494.47;4933870;29;20048;-84
2022/01/31 02:30:35;;;;;;;63.85;33.28;;;;;;;2.83;100.00;100487.38;4947403;29;20072;-87
2022/01/31 02:33:10;;;;;;;68.15;34.78;;;;;;;2.21;100.00;100471.91;4932352;29;20048;-85
2022/01/31 02:35:53;;;;;;;67.28;34.35;;;;;;;2.11;100.00;100468.28;4930608;29;20073;-84
2022/01/31 02:38:22;;;;;;;64.85;34.47;;;;;;;2.52;100.00;100466.09;4902900;29;20414;-84
2022/01/31 02:41:06;;;;;;;65.10;34.50;;;;;;;2.43;100.00;100463.31;4931213;29;20032;-84
2022/01/31 02:43:34;;;;;;;64.03;33.63;;;;;;;2.06;100.00;100452.91;4906415;29;20044;-85
2022/01/31 02:46:03;;;;;;;69.88;34.72;;;;;;;1.97;100.00;100452.72;4932044;29;20051;-85
2022/01/31 02:48:37;;;;;;;71.28;36.63;;;;;;;2.03;100.00;100447.91;4930893;29;20032;-84
2022/01/31 02:51:21;;;;;;;68.63;34.72;;;;;;;2.17;100.00;100459.16;4912399;29;21126;-84
2022/01/31 02:53:52;;;;;;;65.85;34.10;;;;;;;2.29;100.00;100443.41;4928572;29;20048;-84
2022/01/31 02:56:18;;;;;;;64.35;32.92;;;;;;;2.31;100.00;100435.47;4945761;29;20060;-88
2022/01/31 02:58:47;;;;;;;63.72;32.53;;;;;;;2.45;100.00;100433.50;4947446;29;20044;-87
2022/01/31 03:01:16;;;;;;;64.53;32.72;;;;;;;2.68;100.00;100429.19;4943711;29;20091;-87
2022/01/31 03:03:42;;;;;;;66.97;32.78;;;;;;;2.79;100.00;100425.75;4926360;29;20051;-86
2022/01/31 03:06:08;;;;;;;62.58;32.47;;;;;;;2.95;100.00;100432.34;4930501;29;20036;-85
2022/01/31 03:08:38;;;;;;;65.07;32.00;;;;;;;2.90;100.00;100423.19;4958994;23;20096;-85
2022/01/31 03:11:29;;;;;;;55.10;30.13;;;;;;;3.18;100.00;100430.63;4952238;28;20047;-85
2022/01/31 03:14:19;;;;;;;53.60;28.25;;;;;;;3.13;100.00;100449.28;4947313;29;20040;-85
2022/01/31 03:16:50;;;;;;;50.78;28.20;;;;;;;3.27;100.00;100448.25;4946755;29;20035;-85
2022/01/31 03:19:40;;;;;;;61.38;26.90;;;;;;;3.25;100.00;100442.25;4946163;29;20036;-85
2022/01/31 03:22:06;;;;;;;47.78;25.50;;;;;;;3.28;100.00;100439.41;4926569;29;20414;-84
2022/01/31 03:24:42;;;;;;;50.58;25.80;;;;;;;2.97;100.00;100438.31;4947927;29;20062;-84
2022/01/31 03:27:08;;;;;;;42.22;24.17;;;;;;;2.93;100.00;100428.19;4949549;29;20036;-84
2022/01/31 03:29:36;;;;;;;45.10;24.73;;;;;;;3.21;100.00;100429.53;4946212;29;20087;-86
2022/01/31 03:32:03;;;;;;;47.78;26.13;;;;;;;3.18;100.00;100427.16;4950096;29;20486;-86
2022/01/31 03:34:29;;;;;;;51.67;28.48;;;;;;;2.50;100.00;100415.69;4947686;29;20043;-87
2022/01/31 03:37:07;;;;;;;53.92;30.05;;;;;;;2.29;100.00;100412.03;4945135;29;20031;-86
2022/01/31 03:39:53;;;;;;;51.25;29.67;;;;;;;2.02;100.00;100406.22;4950975;29;20116;-86
2022/01/31 03:42:30;;;;;;;54.22;30.02;;;;;;;2.07;100.00;100418.00;4953412;29;20035;-86
2022/01/31 03:45:06;;;;;;;54.83;29.23;;;;;;;1.98;100.00;100415.22;4943882;29;20122;-85
2022/01/31 03:47:31;;;;;;;51.03;27.92;;;;;;;2.31;100.00;100409.31;4946265;29;20036;-86
2022/01/31 03:50:10;;;;;;;51.30;29.58;;;;;;;2.26;100.00;100395.72;4950799;29;20497;-86
2022/01/31 03:52:38;;;;;;;56.47;29.50;;;;;;;2.37;100.00;100398.41;4954242;29;20036;-87
2022/01/31 03:55:13;;;;;;;54.00;29.20;;;;;;;2.33;100.00;100397.78;4937151;29;21207;-86
2022/01/31 03:57:40;;;;;;;54.70;29.05;;;;;;;2.22;100.00;100405.56;4955201;29;20032;-85
2022/01/31 04:00:35;;;;;;;51.67;29.10;;;;;;;2.37;100.00;100383.53;4956451;29;20087;-84
2022/01/31 04:05:51;;;;;;;49.63;26.48;;;;;;;2.42;100.00;100365.72;4697286;27;20052;-86
2022/01/31 04:08:22;;;;;;;48.05;27.95;;;;;;;1.87;100.00;100352.41;4938335;29;20048;-85
2022/01/31 04:10:48;;;;;;;56.40;29.52;;;;;;;1.64;100.00;100348.84;4938457;29;20048;-85
2022/01/31 04:13:21;;;;;;;66.88;32.38;;;;;;;1.48;100.00;100346.50;4941267;29;20020;-82
2022/01/31 04:15:46;;;;;;;67.22;35.28;;;;;;;1.26;100.00;100348.94;4942408;29;20043;-86
2022/01/31 04:18:12;;;;;;;70.35;36.20;;;;;;;1.22;100.00;100334.47;4944766;29;20056;-84
2022/01/31 04:20:53;;;;;;;65.00;35.08;;;;;;;1.16;100.00;100331.44;4940826;29;20048;-85
2022/01/31 04:23:31;;;;;;;65.57;35.88;;;;;;;1.15;100.00;100322.78;4935959;29;20059;-87
2022/01/31 04:26:07;;;;;;;61.38;33.80;;;;;;;1.56;100.00;100317.22;4939150;29;20054;-85
2022/01/31 04:29:28;;;;;;;62.05;33.22;;;;;;;1.41;100.00;100307.88;4939845;29;20052;-84
2022/01/31 04:31:54;;;;;;;67.82;34.60;;;;;;;1.43;100.00;100311.19;4941753;29;20045;-85
2022/01/31 04:34:34;;;;;;;65.82;33.28;;;;;;;1.53;100.00;100312.22;4942407;29;20095;-84
2022/01/31 04:37:10;;;;;;;67.15;33.88;;;;;;;1.99;100.00;100307.09;4940222;29;20044;-85
2022/01/31 04:39:46;;;;;;;56.60;31.58;;;;;;;1.98;100.00;100289.75;4924865;29;20033;-84
2022/01/31 04:51:55;;;;;;;68.47;36.83;;;;;;;1.43;100.00;100249.38;4845742;23;20056;-86
2022/01/31 04:54:23;;;;;;;74.20;36.60;;;;;;;1.43;100.00;100253.75;4939798;29;20087;-86
2022/01/31 04:57:05;;;;;;;77.10;37.28;;;;;;;1.29;100.00;100243.50;4938079;29;20034;-87
2022/01/31 04:59:43;;;;;;;74.57;34.83;;;;;;;1.31;100.00;100252.88;4941091;29;20092;-87
2022/01/31 05:02:30;;;;;;;67.63;34.33;;;;;;;1.35;100.00;100243.88;4945200;23;20068;-88
2022/01/31 05:04:59;;;;;;;66.60;34.60;;;;;;;1.22;100.00;100231.81;4938261;29;20054;-85
2022/01/31 05:07:45;;;;;;;73.55;34.72;;;;;;;1.35;100.00;100225.63;4921606;29;20123;-85
2022/01/31 05:10:34;;;;;;;75.65;35.40;;;;;;;1.40;100.00;100226.09;4937748;29;20058;-85
2022/01/31 05:13:07;;;;;;;73.85;34.35;;;;;;;1.49;100.00;100228.03;4940343;29;20044;-85
2022/01/31 05:15:42;;;;;;;62.03;31.70;;;;;;;1.63;100.00;100210.53;4938656;29;20077;-84
2022/01/31 05:18:28;;;;;;;69.47;33.13;;;;;;;1.72;100.00;100191.59;4938755;29;20048;-84
2022/01/31 05:21:04;;;;;;;68.30;31.77;;;;;;;1.63;100.00;100193.06;4935118;29;20585;-84
2022/01/31 05:23:54;;;;;;;61.17;31.13;;;;;;;1.76;100.00;100187.78;5017727;23;20052;-82
2022/01/31 05:26:34;;;;;;;67.72;31.20;;;;;;;1.71;100.00;100164.63;4939854;29;20036;-83
2022/01/31 05:29:00;;;;;;;59.92;32.85;;;;;;;1.95;100.00;100167.19;4940782;29;20048;-83
2022/01/31 05:31:26;;;;;;;64.53;32.28;;;;;;;2.28;100.00;100169.00;4933153;29;20076;-85
2022/01/31 05:33:54;;;;;;;62.97;31.13;;;;;;;2.11;100.00;100167.66;4933204;29;20039;-85
2022/01/31 05:36:21;;;;;;;58.15;29.75;;;;;;;1.88;100.00;100166.81;4945093;29;20028;-84
2022/01/31 05:38:49;;;;;;;59.90;30.45;;;;;;;1.78;100.00;100175.44;4928977;29;20043;-84
2022/01/31 05:44:05;;;;;;;62.30;31.23;;;;;;;1.26;100.00;100176.66;4927401;29;20048;-86
2022/01/31 05:46:31;;;;;;;62.38;30.48;;;;;;;1.29;100.00;100176.47;4932404;29;20084;-80
2022/01/31 05:48:57;;;;;;;59.38;29.90;;;;;;;1.13;100.00;100172.47;4931538;29;20044;-83
2022/01/31 05:51:28;;;;;;;62.03;30.70;;;;;;;1.29;100.00;100168.63;4929282;29;20092;-87
2022/01/31 05:59:41;;;;;;;64.15;31.92;;;;;;;2.16;100.00;100170.75;4911666;29;20064;-88
2022/01/31 06:02:08;;;;;;;62.30;31.00;;;;;;;2.34;100.00;100173.75;4927575;29;20040;-91
2022/01/31 06:04:34;;;;;;;55.00;27.48;;;;;;;2.21;100.00;100173.88;4907434;29;20039;-91
2022/01/31 06:07:00;;;;;;;57.20;28.08;;;;;;;2.39;100.00;100182.06;4908195;29;20036;-86
2022/01/31 06:09:48;;;;;;;58.35;29.75;;;;;;;2.19;100.00;100175.75;4906266;29;20052;-89
2022/01/31 06:12:20;;;;;;;60.22;29.38;;;;;;;2.18;100.00;100174.09;4930308;29;20126;-84
2022/01/31 06:14:49;;;;;;;59.78;28.92;;;;;;;2.18;100.00;100179.31;4925930;29;20037;-89
2022/01/31 06:17:14;;;;;;;56.40;28.70;;;;;;;2.20;100.00;100168.72;4906835;29;20120;-89
2022/01/31 06:19:41;;;;;;;60.75;30.83;;;;;;;2.00;100.00;100172.88;4921307;29;20435;-87
2022/01/31 06:22:07;;;;;;;57.72;28.15;;;;;;;2.02;100.00;100171.00;4908792;29;20055;-92
2022/01/31 06:24:32;;;;;;;58.80;31.10;;;;;;;1.88;100.00;100186.88;4910998;29;20056;-89
2022/01/31 06:27:09;;;;;;;63.95;31.67;;;;;;;1.77;100.00;100173.78;4922710;29;20036;-85
2022/01/31 06:29:36;;;;;;;57.25;31.27;;;;;;;1.70;100.00;100177.78;4918911;29;20040;-82
2022/01/31 06:32:13;;;;;;;68.20;32.42;;;;;;;1.54;100.00;100167.66;4915746;29;20127;-91
2022/01/31 06:34:38;;;;;;;61.78;32.97;;;;;;;1.71;100.00;100158.56;4911037;29;20044;-86
2022/01/31 06:37:17;;;;;;;62.78;31.20;;;;;;;1.70;100.00;100146.44;4908234;29;20043;-89
2022/01/31 06:39:43;;;;;;;58.10;28.48;;;;;;;1.81;100.00;100130.81;4910739;29;20028;-89
2022/01/31 06:42:09;;;;;;;57.13;29.73;;;;;;;1.91;100.00;100122.16;4923681;29;20041;-89
2022/01/31 06:44:39;;;;;;;56.95;29.02;;;;;;;1.78;100.00;100117.97;4914237;29;20037;-89
2022/01/31 06:47:05;;;;;;;49.78;26.38;;;;;;;1.87;100.00;100120.72;4905083;29;20029;-86
2022/01/31 06:49:31;;;;;;;48.90;24.52;;;;;;;1.98;100.00;100112.06;4921518;29;20440;-87
2022/01/31 06:51:56;;;;;;;47.72;22.92;;;;;;;1.97;100.00;100113.00;4923127;29;20029;-89
2022/01/31 06:54:22;;;;;;;51.63;25.05;;;;;;;2.02;100.00;100105.66;4905312;29;20060;-88
2022/01/31 07:00:41;;;;;;;64.82;27.15;;;;;;;1.88;100.00;100085.81;4980589;23;20047;-90
2022/01/31 07:03:10;;;;;;;41.70;20.73;;;;;;;1.76;100.00;100088.50;4960733;28;20019;-86
2022/01/31 07:05:37;;;;;;;71.18;31.10;;;;;;;1.86;100.00;100094.69;4960464;28;20027;-87
2022/01/31 07:08:02;;;;;;;72.65;30.27;;;;;;;2.04;100.00;100099.34;4953873;28;20047;-91
2022/01/31 07:10:30;;;;;;;65.72;29.40;;;;;;;2.02;100.00;100095.19;4947460;29;20043;-91
2022/01/31 07:13:03;;;;;;;60.80;28.15;;;;;;;2.07;100.00;100099.13;4932616;29;20148;-87
2022/01/31 07:15:29;;;;;;;55.78;27.55;;;;;;;2.01;100.00;100089.13;4944345;29;20043;-88
2022/01/31 07:18:01;;;;;;;56.20;26.00;;;;;;;2.18;100.00;100090.44;4929574;29;20038;-89
2022/01/31 07:20:38;;;;;;;48.53;25.00;;;;;;;2.31;100.00;100095.53;4926536;29;20063;-86
2022/01/31 07:23:09;;;;;;;48.95;25.92;;;;;;;2.25;100.00;100099.47;4942841;29;20082;-89
2022/01/31 07:25:38;;;;;;;53.03;28.58;;;;;;;2.18;100.00;100095.69;4924028;29;20039;-89
2022/01/31 07:28:08;;;;;;;61.63;28.42;;;;;;;2.33;100.00;100098.84;4925958;29;20102;-89
2022/01/31 07:30:39;;;;;;;54.20;27.40;;;;;;;2.55;100.00;100093.63;4935564;29;20031;-87
2022/01/31 07:33:26;;;;;;;71.75;29.40;;;;;;;2.62;100.00;100073.03;4955471;29;20035;-87
2022/01/31 07:35:54;;;;;;;52.33;26.42;;;;;;;2.70;100.00;100060.16;4861697;29;20094;-87
2022/01/31 07:38:19;;;;;;;51.83;26.60;;;;;;;2.81;100.00;100042.66;4841066;29;20046;-91
2022/01/31 07:40:45;;;;;;;56.22;26.85;;;;;;;2.70;100.00;100049.69;4853048;29;20087;-86
2022/01/31 07:43:11;;;;;;;56.55;27.50;;;;;;;2.84;100.00;100041.56;4855539;29;20041;-90
2022/01/31 07:45:37;;;;;;;56.47;28.45;;;;;;;2.71;100.00;100051.38;4852718;29;20468;-92
2022/01/31 07:48:29;;;;;;;57.22;27.92;;;;;;;2.75;100.00;100068.50;4832426;29;20050;-88
2022/01/31 07:51:40;;;;;;;51.70;26.55;;;;;;;2.52;100.00;100081.59;4824727;29;20059;-91
2022/01/31 07:54:51;;;;;;;47.88;21.10;;;;;;;2.61;100.00;100087.91;4828072;29;20076;-92
2022/01/31 07:57:58;;;;;;;60.70;29.20;;;;;;;2.38;100.00;100108.03;4908617;23;20075;-88
2022/01/31 08:00:24;;;;;;;65.50;30.63;;;;;;;2.23;100.00;100122.28;4925150;29;20033;-91
2022/01/31 08:02:57;;;;;;;65.82;33.15;;;;;;;1.99;100.00;100121.53;4928646;29;20032;-88
2022/01/31 08:05:22;;;;;;;59.22;34.58;;;;;;;2.01;100.00;100111.81;4906182;29;20565;-89
2022/01/31 08:07:49;;;;;;;67.10;37.63;;;;;;;1.91;100.00;100113.47;4924976;29;20057;-91
2022/01/31 08:10:29;;;;;;;74.55;41.17;;;;;;;1.96;100.00;100106.94;4898990;29;20048;-90
2022/01/31 08:16:09;;;;;;;73.38;42.65;;;;;;;1.97;100.00;100102.56;5007313;23;20060;-90
2022/01/31 08:18:43;;;;;;;70.80;41.47;;;;;;;2.54;100.00;100103.25;4916353;29;20093;-90
2022/01/31 08:21:54;;;;;;;72.50;42.70;;;;;;;2.91;100.00;100102.94;4873766;29;20041;-90
2022/01/31 08:25:06;;;;;;;75.57;43.03;;;;;;;3.15;100.00;100087.81;4907585;29;20056;-90
2022/01/31 08:28:01;;;;;;;81.35;42.30;;;;;;;3.34;100.00;100081.94;4908021;29;20093;-91
2022/01/31 08:30:58;;;;;;;71.75;42.95;;;;;;;3.09;100.00;100072.63;4916253;29;20032;-93
2022/01/31 08:36:42;;;;;;;81.82;43.53;;;;;;;3.09;100.00;100052.53;4928256;29;20052;-90
2022/01/31 08:39:33;;;;;;;68.43;42.15;;;;;;;2.97;100.00;100043.06;4915315;29;20044;-92
2022/01/31 08:42:17;;;;;;;79.63;41.58;;;;;;;2.77;100.00;100035.16;5022312;23;20064;-92
2022/01/31 08:44:58;;;;;;;72.43;44.15;;;;;;;2.63;100.00;100015.34;4922646;29;20070;-89
2022/01/31 08:47:40;;;;;;;74.95;42.15;;;;;;;2.78;100.00;100008.06;4925137;29;20036;-89
2022/01/31 08:50:10;;;;;;;83.07;42.33;;;;;;;2.95;100.00;99994.44;4924853;29;20036;-88
2022/01/31 08:52:37;;;;;;;81.15;43.53;;;;;;;2.85;100.00;99985.66;4938367;29;20056;-88
2022/01/31 08:55:14;;;;;;;78.95;41.10;;;;;;;2.86;100.00;99976.84;4934981;29;20506;-90
2022/01/31 08:57:57;;;;;;;;;;;;;;;;;;;;;
2022/01/31 09:00:34;;;;;;;;;;;;;;;3.09;100.00;99939.94;4930019;29;20032;-92
2022/01/31 09:05:58;;;;;;;70.38;37.83;;;;;;;3.15;100.00;99909.00;4905651;29;20109;-90
2022/01/31 09:08:32;;;;;;;79.70;39.25;;;;;;;3.57;100.00;99898.28;4920613;29;20202;-89
2022/01/31 09:11:15;;;;;;;69.13;38.03;;;;;;;3.39;100.00;99912.13;4889958;29;20058;-90
2022/01/31 09:13:54;;;;;;;95.97;40.67;;;;;;;3.35;100.00;99911.53;4907421;29;20119;-90
2022/01/31 09:16:21;;;;;;;81.45;42.00;;;;;;;3.52;100.00;99913.56;4907862;29;20056;-89
2022/01/31 09:18:58;;;;;;;86.28;44.83;;;;;;;3.71;100.00;99944.25;4908428;29;20495;-89
2022/01/31 09:24:44;;;;;;;116.93;51.47;;;;;;;3.77;100.00;99914.91;4896469;23;20460;-89
2022/01/31 09:27:15;;;;;;;101.05;47.97;;;;;;;3.86;100.00;99908.84;4925598;29;20063;-88
2022/01/31 09:29:41;;;;;;;91.57;47.35;;;;;;;3.65;100.00;99908.91;4923331;29;20040;-91
2022/01/31 09:32:22;;;;;;;84.22;47.67;;;;;;;3.77;100.00;99912.28;4925517;29;20055;-91
2022/01/31 09:34:52;;;;;;;104.35;48.17;;;;;;;3.85;100.00;99904.56;4928292;29;20036;-89
2022/01/31 09:37:23;;;;;;;85.95;47.95;;;;;;;3.55;100.00;99887.09;4919836;29;20047;-91
2022/01/31 09:39:51;;;;;;;86.38;46.22;;;;;;;3.61;100.00;99891.78;4938326;29;20020;-89
2022/01/31 09:50:36;;;;;;;92.85;47.17;;;;;;;4.20;100.00;99898.00;4924457;29;20076;-90
2022/01/31 09:53:09;;;;;;;103.60;46.67;;;;;;;4.18;100.00;99896.34;4925493;29;20029;-90
2022/01/31 09:58:30;;;;;;;97.15;48.75;;;;;;;4.31;100.00;99914.41;5000052;23;20052;-91
2022/01/31 10:01:15;;;;;;;89.05;47.85;;;;;;;4.13;100.00;99905.59;4920896;29;20028;-89
2022/01/31 10:04:17;;;;;;;;;;;;;;;;;;;;;
2022/01/31 10:07:07;;;;;;;94.03;50.33;;;;;;;4.04;100.00;99924.75;4940946;29;20024;-87
2022/01/31 10:10:26;;;;;;;98.82;48.20;;;;;;;3.83;100.00;99929.25;4948157;29;20044;-92
2022/01/31 10:16:39;;;;;;;89.28;49.47;;;;;;;3.36;100.00;99928.94;4932351;29;20055;-92
2022/01/31 10:19:51;;;;;;;100.75;52.65;;;;;;;3.19;100.00;99919.06;4909935;29;20044;-90
2022/01/31 10:22:52;;;;;;;94.78;51.60;;;;;;;3.27;100.00;99907.94;4913542;29;20021;-92
2022/01/31 10:26:41;;;;;;;;;;;;;;;;;;;;;
2022/01/31 10:29:42;;;;;;;95.55;50.03;;;;;;;3.34;100.00;99912.53;4891395;29;20048;-92
2022/01/31 10:36:31;;;;;;;106.72;55.40;;;;;;;2.90;100.00;99889.28;4804601;30;20094;-93
2022/01/31 10:53:53;;;;;;;132.60;66.82;;;;;;;4.26;100.00;99813.50;4907080;29;20139;-93
2022/01/31 11:00:17;;;;;;;156.40;72.15;;;;;;;4.35;100.00;99774.16;4804762;29;20088;-90
2022/01/31 11:03:40;;;;;;;155.70;77.50;;;;;;;4.90;100.00;99756.75;4833139;29;20042;-89
2022/01/31 11:06:23;;;;;;;172.15;80.68;;;;;;;5.04;100.00;99743.13;4917739;23;20304;-90
2022/01/31 11:09:03;;;;;;;180.63;79.97;;;;;;;5.39;100.00;99729.25;4928064;29;20454;-91
2022/01/31 11:11:32;;;;;;;173.35;75.57;;;;;;;5.76;100.00;99718.59;4940288;29;20032;-93
2022/01/31 11:14:02;;;;;;;156.98;75.78;;;;;;;5.82;100.00;99690.88;4914475;29;20055;-89
2022/01/31 11:16:40;;;;;;;132.88;66.68;;;;;;;5.85;100.00;99688.75;4932967;29;20036;-87
2022/01/31 11:19:16;;;;;;;161.23;60.97;;;;;;;6.01;100.00;99674.94;4926992;29;20060;-88
2022/01/31 11:21:52;;;;;;;191.15;56.08;;;;;;;6.04;100.00;99654.41;4938290;29;20025;-89
2022/01/31 11:24:25;;;;;;;87.05;44.30;;;;;;;5.83;100.00;99639.94;4940640;29;20031;-89
2022/01/31 11:26:58;;;;;;;89.32;44.47;;;;;;;5.83;100.00;99635.50;4929153;29;20040;-89
2022/01/31 11:29:24;;;;;;;94.07;44.90;;;;;;;5.70;100.00;99635.88;4941517;29;20878;-92
2022/01/31 11:32:00;;;;;;;80.00;41.55;;;;;;;5.92;100.00;99629.34;4927057;29;20028;-90
2022/01/31 11:34:27;;;;;;;89.95;42.53;;;;;;;6.05;100.00;99628.94;4924867;29;20036;-91
2022/01/31 11:36:58;;;;;;;79.47;40.33;;;;;;;6.33;100.00;99621.72;4907418;29;20666;-90
2022/01/31 11:39:24;;;;;;;74.93;36.53;;;;;;;6.31;100.00;99624.47;4905731;29;20401;-90
2022/01/31 11:42:01;;;;;;;62.33;33.17;;;;;;;6.57;100.00;99620.00;4907533;29;20040;-91
2022/01/31 11:44:29;;;;;;;66.93;35.67;;;;;;;6.48;100.00;99625.38;4927451;29;20032;-93
2022/01/31 11:47:05;;;;;;;72.22;35.70;;;;;;;6.61;100.00;99616.06;4925348;29;20068;-88
2022/01/31 11:49:50;;;;;;;68.38;36.72;;;;;;;6.67;100.00;99607.53;4923952;29;20036;-91
2022/01/31 11:55:09;;;;;;;74.28;37.47;;;;;;;6.78;100.00;99597.69;4926770;29;20047;-92
2022/01/31 11:57:48;;;;;;;68.60;36.25;;;;;;;6.84;100.00;99594.41;4913525;29;20068;-90
2022/01/31 12:00:28;;;;;;;79.68;39.08;;;;;;;6.83;100.00;99595.41;4925938;29;20036;-90
2022/01/31 12:03:11;;;;;;;82.78;40.80;;;;;;;6.78;100.00;99597.69;4926654;29;20071;-90
2022/01/31 12:05:47;;;;;;;91.43;47.97;;;;;;;7.07;100.00;99603.34;4930471;29;20043;-90
2022/01/31 12:08:43;;;;;;;92.18;48.67;;;;;;;7.14;100.00;99591.19;4932477;29;20493;-88
2022/01/31 12:11:22;;;;;;;81.53;41.20;;;;;;;7.13;100.00;99589.53;4932560;29;20104;-87
2022/01/31 12:14:08;;;;;;;102.82;52.90;;;;;;;7.01;100.00;99581.13;4948394;23;20108;-91
2022/01/31 12:22:33;;;;;;;125.65;66.28;;;;;;;7.03;100.00;99555.44;4973107;23;20099;-90
2022/01/31 12:25:43;;;;;;;135.90;66.10;;;;;;;6.95;100.00;99538.81;4953765;23;20052;-91
2022/01/31 12:28:47;;;;;;;132.68;66.00;;;;;;;6.99;100.00;99529.59;4919638;29;20052;-89
2022/01/31 12:31:26;;;;;;;141.18;69.47;;;;;;;6.87;100.00;99529.06;4902233;29;20053;-88
2022/01/31 12:33:57;;;;;;;;;;;;;;;6.95;100.00;99521.19;4916156;29;20052;-90
2022/01/31 12:36:52;;;;;;;121.70;62.53;;;;;;;6.91;100.00;99496.16;4913532;29;19930;-90
2022/01/31 12:39:41;;;;;;;120.38;64.43;;;;;;;6.89;100.00;99494.69;4911171;29;20567;-90
2022/01/31 12:42:51;;;;;;;130.52;64.97;;;;;;;7.00;100.00;99489.91;5138372;23;20490;-87
2022/01/31 12:45:43;;;;;;;123.57;64.70;;;;;;;6.74;100.00;99466.34;4961491;23;20051;-91
2022/01/31 12:48:31;;;;;;;130.15;63.42;;;;;;;6.85;100.00;99473.13;4917014;29;20056;-87
2022/01/31 12:51:08;;;;;;;130.23;62.90;;;;;;;6.93;100.00;99451.22;4914868;29;20056;-89
2022/01/31 12:53:53;;;;;;;124.70;65.82;;;;;;;7.01;100.00;99438.03;4913213;29;20077;-89
2022/01/31 12:56:26;;;;;;;126.28;63.28;;;;;;;7.15;100.00;99419.78;4914297;29;20052;-91
2022/01/31 12:59:29;;;;;;;127.97;66.15;;;;;;;7.24;100.00;99417.94;4912896;29;20461;-89
2022/01/31 13:02:05;;;;;;;125.00;62.45;;;;;;;7.41;100.00;99408.16;4858148;29;20045;-89
2022/01/31 13:04:38;;;;;;;120.90;63.78;;;;;;;7.49;100.00;99414.22;4859396;29;20130;-91
2022/01/31 13:07:27;;;;;;;120.30;62.63;;;;;;;7.37;100.00;99410.31;4849142;29;20037;-90
2022/01/31 13:10:15;;;;;;;125.05;64.78;;;;;;;7.34;100.00;99386.94;4880014;29;20106;-89
2022/01/31 13:13:03;;;;;;;126.78;63.83;;;;;;;7.58;100.00;99378.97;4875706;29;20053;-88
2022/01/31 13:15:32;;;;;;;125.25;63.53;;;;;;;7.58;100.00;99378.13;4873312;29;20235;-91
2022/01/31 13:18:24;;;;;;;129.45;63.40;;;;;;;7.46;100.00;99377.66;4859655;29;20021;-86
2022/01/31 13:21:09;;;;;;;121.18;61.20;;;;;;;7.63;100.00;99376.63;4876445;29;20044;-90